createdAt,value
2018-05-07T00:01:43.224Z,18.80
2018-05-07T00:04:47.616Z,18.81
2018-05-07T00:07:51.062Z,18.78
2018-05-07T00:10:54.425Z,18.79
2018-05-07T00:13:57.712Z,18.80
2018-05-07T00:17:02.002Z,18.76
2018-05-07T00:20:05.335Z,18.68
2018-05-07T00:23:08.648Z,18.61
2018-05-07T00:26:11.960Z,18.54
2018-05-07T00:29:15.330Z,18.39
2018-05-07T00:32:18.754Z,18.33
2018-05-07T00:35:22.040Z,18.29
2018-05-07T00:38:33.358Z,18.27
2018-05-07T00:41:36.675Z,18.21
2018-05-07T00:44:40.924Z,18.16
2018-05-07T00:47:44.315Z,18.13
2018-05-07T00:50:47.640Z,18.12
2018-05-07T00:53:50.971Z,18.09
2018-05-07T00:56:54.241Z,18.09
2018-05-07T00:59:57.755Z,17.99
2018-05-07T01:03:01.398Z,18.00
2018-05-07T01:06:04.767Z,18.00
2018-05-07T01:09:08.143Z,17.96
2018-05-07T01:12:11.462Z,17.84
2018-05-07T01:15:14.894Z,17.77
2018-05-07T01:18:19.250Z,17.72
2018-05-07T01:21:22.576Z,17.63
2018-05-07T01:24:25.905Z,17.55
2018-05-07T01:27:29.668Z,17.52
2018-05-07T01:30:33.977Z,17.54
2018-05-07T01:33:37.399Z,17.49
2018-05-07T01:36:41.703Z,17.46
2018-05-07T01:39:45.007Z,17.45
2018-05-07T01:42:48.341Z,17.48
2018-05-07T01:45:51.689Z,17.50
2018-05-07T01:48:56.044Z,17.52
2018-05-07T01:52:03.595Z,17.49
2018-05-07T01:55:06.844Z,17.45
2018-05-07T01:58:10.122Z,17.41
2018-05-07T02:01:13.525Z,17.42
2018-05-07T02:04:16.868Z,17.39
2018-05-07T02:07:20.148Z,17.34
2018-05-07T02:10:23.467Z,17.37
2018-05-07T02:13:26.837Z,17.34
2018-05-07T02:16:31.876Z,17.35
2018-05-07T02:19:35.287Z,17.35
2018-05-07T02:22:38.658Z,17.37
2018-05-07T02:25:42.759Z,17.33
2018-05-07T02:28:45.908Z,17.35
2018-05-07T02:31:49.281Z,17.37
2018-05-07T02:34:52.643Z,17.31
2018-05-07T02:37:55.952Z,17.27
2018-05-07T02:40:59.352Z,17.26
2018-05-07T02:44:03.168Z,17.26
2018-05-07T02:47:06.524Z,17.25
2018-05-07T02:50:09.863Z,17.24
2018-05-07T02:53:13.132Z,17.18
2018-05-07T02:56:16.343Z,17.18
2018-05-07T02:59:19.736Z,17.17
2018-05-07T03:02:23.080Z,17.08
2018-05-07T03:05:26.328Z,17.07
2018-05-07T03:08:29.732Z,17.01
2018-05-07T03:11:34.029Z,17.05
2018-05-07T03:14:37.383Z,17.01
2018-05-07T03:17:40.767Z,17.00
2018-05-07T03:20:44.059Z,16.91
2018-05-07T03:23:49.379Z,16.82
2018-05-07T03:26:52.811Z,16.80
2018-05-07T03:29:56.341Z,16.81
2018-05-07T03:32:59.711Z,16.73
2018-05-07T03:36:04.247Z,16.70
2018-05-07T03:39:07.661Z,16.64
2018-05-07T03:42:11.922Z,16.59
2018-05-07T03:45:15.307Z,16.59
2018-05-07T06:04:09.396Z,17.69
2018-05-07T06:07:12.799Z,17.76
2018-05-07T06:10:16.284Z,17.68
2018-05-07T06:13:19.655Z,17.78
2018-05-07T06:16:23.115Z,17.73
2018-05-07T06:19:26.468Z,17.79
2018-05-07T06:22:29.884Z,17.82
2018-05-07T06:25:33.282Z,17.91
2018-05-07T06:28:36.560Z,18.02
2018-05-07T06:31:39.874Z,18.10
2018-05-07T06:34:43.719Z,18.17
2018-05-07T06:37:47.038Z,18.29
2018-05-07T06:40:50.462Z,18.36
2018-05-07T06:43:53.848Z,18.41
2018-05-07T06:46:58.183Z,18.52
2018-05-07T06:50:02.520Z,18.54
2018-05-07T06:53:05.874Z,18.64
2018-05-07T06:56:09.116Z,18.62
2018-05-07T06:59:12.388Z,18.69
2018-05-07T07:02:16.776Z,18.66
2018-05-07T07:05:20.022Z,18.67
2018-05-07T07:08:23.419Z,18.76
2018-05-07T07:11:26.589Z,18.88
2018-05-07T07:14:30.135Z,18.99
2018-05-07T07:17:33.586Z,18.94
2018-05-07T07:20:36.907Z,19.00
2018-05-07T07:23:40.334Z,19.11
2018-05-07T07:26:43.672Z,19.25
2018-05-07T07:29:47.051Z,19.37
2018-05-07T07:32:50.470Z,19.44
2018-05-07T07:35:54.556Z,19.53
2018-05-07T07:38:57.961Z,19.58
2018-05-07T07:42:01.283Z,19.65
2018-05-07T07:45:04.589Z,19.65
2018-05-07T07:48:07.895Z,19.69
2018-05-07T07:51:11.375Z,19.76
2018-05-07T07:54:14.696Z,19.83
2018-05-07T07:57:17.999Z,19.98
2018-05-07T08:00:21.286Z,20.05
2018-05-07T08:03:25.288Z,19.96
2018-05-07T08:06:28.513Z,20.11
2018-05-07T08:09:31.880Z,20.14
2018-05-07T08:12:35.259Z,20.31
2018-05-07T08:15:38.606Z,20.20
2018-05-07T08:18:41.949Z,20.27
2018-05-07T08:21:45.308Z,20.40
2018-05-07T08:24:48.633Z,20.42
2018-05-07T08:27:52.445Z,20.63
2018-05-07T08:30:55.875Z,20.78
2018-05-07T08:33:59.166Z,20.88
2018-05-07T08:37:02.584Z,20.93
2018-05-07T08:40:05.875Z,20.96
2018-05-07T08:43:10.249Z,21.10
2018-05-07T08:46:13.567Z,21.07
2018-05-07T08:49:17.223Z,21.17
2018-05-07T08:52:20.527Z,21.32
2018-05-07T08:55:24.061Z,21.13
2018-05-07T08:58:27.507Z,21.34
2018-05-07T09:01:30.795Z,21.26
2018-05-07T09:04:34.388Z,21.48
2018-05-07T09:07:37.727Z,21.73
2018-05-07T09:10:41.137Z,22.20
2018-05-07T09:13:44.487Z,22.22
2018-05-07T09:16:47.861Z,22.25
2018-05-07T09:19:51.265Z,22.22
2018-05-07T09:22:55.503Z,22.18
2018-05-07T09:25:58.843Z,22.12
2018-05-07T09:29:02.212Z,22.10
2018-05-07T09:32:05.543Z,22.30
2018-05-07T09:35:08.916Z,22.56
2018-05-07T09:38:12.207Z,22.68
2018-05-07T09:41:15.547Z,22.94
2018-05-07T09:44:18.986Z,23.13
2018-05-07T09:47:22.310Z,23.26
2018-05-07T09:50:26.245Z,23.19
2018-05-07T09:53:29.703Z,23.11
2018-05-07T09:56:33.581Z,23.32
2018-05-07T09:59:36.837Z,23.42
2018-05-07T10:02:40.187Z,23.60
2018-05-07T10:05:43.659Z,23.25
2018-05-07T10:08:46.955Z,23.16
2018-05-07T10:11:52.301Z,23.44
2018-05-07T10:14:56.643Z,23.05
2018-05-07T10:17:59.791Z,23.06
2018-05-07T10:21:03.120Z,23.11
2018-05-07T10:24:06.622Z,23.42
2018-05-07T10:27:09.785Z,23.98
2018-05-07T10:30:13.059Z,24.18
2018-05-07T10:33:16.354Z,24.28
2018-05-07T10:36:19.708Z,24.01
2018-05-07T10:39:23.001Z,24.27
2018-05-07T10:42:27.281Z,24.34
2018-05-07T10:45:30.677Z,24.17
2018-05-07T10:48:34.024Z,24.32
2018-05-07T10:51:37.368Z,24.34
2018-05-07T10:54:40.766Z,24.38
2018-05-07T10:57:43.947Z,24.75
2018-05-07T11:00:47.335Z,24.81
2018-05-07T11:03:50.615Z,25.06
2018-05-07T11:06:54.289Z,24.88
2018-05-07T11:09:57.560Z,24.91
2018-05-07T11:13:00.927Z,25.22
2018-05-07T11:16:04.162Z,25.36
2018-05-07T11:19:07.401Z,25.62
2018-05-07T11:22:10.717Z,25.41
2018-05-07T11:25:13.944Z,25.42
2018-05-07T11:28:17.259Z,25.34
2018-05-07T11:31:20.637Z,25.63
2018-05-07T11:34:24.682Z,25.86
2018-05-07T11:37:27.963Z,25.98
2018-05-07T11:40:31.237Z,25.89
2018-05-07T11:43:34.427Z,25.70
2018-05-07T11:46:45.483Z,25.96
2018-05-07T11:49:48.720Z,26.10
2018-05-07T11:52:51.964Z,25.81
2018-05-07T11:55:56.135Z,26.08
2018-05-07T11:58:59.490Z,26.15
2018-05-07T12:02:02.838Z,26.07
2018-05-07T12:05:06.058Z,26.12
2018-05-07T12:08:09.350Z,26.36
2018-05-07T12:11:12.625Z,26.38
2018-05-07T12:14:16.010Z,26.47
2018-05-07T12:17:19.189Z,26.44
2018-05-07T12:20:22.481Z,26.50
2018-05-07T12:23:26.616Z,26.59
2018-05-07T12:26:29.896Z,26.54
2018-05-07T12:29:33.189Z,26.62
2018-05-07T12:32:36.553Z,26.58
2018-05-07T12:35:39.921Z,26.66
2018-05-07T12:38:43.111Z,26.72
2018-05-07T12:41:46.475Z,26.63
2018-05-07T12:44:49.771Z,26.77
2018-05-07T12:47:53.102Z,26.88
2018-05-07T12:50:56.492Z,26.92
2018-05-07T12:54:00.615Z,26.67
2018-05-07T12:57:03.816Z,26.50
2018-05-07T13:00:07.359Z,26.66
2018-05-07T13:03:10.788Z,26.83
2018-05-07T13:06:14.039Z,26.95
2018-05-07T13:09:17.379Z,26.87
2018-05-07T13:12:25.810Z,26.80
2018-05-07T13:15:29.459Z,27.00
2018-05-07T13:18:32.610Z,26.89
2018-05-07T13:21:35.903Z,26.89
2018-05-07T13:24:41.444Z,26.79
2018-05-07T13:27:44.785Z,26.64
2018-05-07T13:30:48.159Z,26.59
2018-05-07T13:33:51.513Z,27.13
2018-05-07T13:36:55.532Z,27.35
2018-05-07T13:39:59.017Z,27.57
2018-05-07T13:43:02.497Z,27.57
2018-05-07T13:46:05.897Z,27.61
2018-05-07T13:49:09.291Z,27.21
2018-05-07T13:52:12.670Z,27.26
2018-05-07T13:55:17.410Z,27.23
2018-05-07T13:58:20.659Z,27.53
2018-05-07T14:01:23.993Z,27.27
2018-05-07T14:04:28.246Z,27.06
2018-05-07T14:07:33.667Z,27.47
2018-05-07T14:10:37.045Z,27.54
2018-05-07T14:13:40.525Z,27.69
2018-05-07T14:16:43.713Z,27.85
2018-05-07T14:19:47.074Z,27.86
2018-05-07T14:22:50.299Z,27.95
2018-05-07T14:25:53.640Z,28.11
2018-05-07T14:28:56.934Z,28.09
2018-05-07T14:32:00.240Z,28.26
2018-05-07T14:35:03.634Z,28.30
2018-05-07T14:38:08.099Z,27.91
2018-05-07T14:41:11.560Z,27.63
2018-05-07T14:44:14.845Z,27.90
2018-05-07T14:47:18.230Z,28.00
2018-05-07T14:50:21.680Z,28.02
2018-05-07T14:53:24.964Z,27.94
2018-05-07T14:56:28.126Z,27.80
2018-05-07T14:59:32.421Z,27.38
2018-05-07T15:02:36.417Z,27.37
2018-05-07T15:05:39.755Z,27.89
2018-05-07T15:08:43.138Z,28.32
2018-05-07T15:11:46.509Z,28.39
2018-05-07T15:14:49.785Z,28.42
2018-05-07T15:17:52.993Z,28.12
2018-05-07T15:20:57.315Z,27.90
2018-05-07T15:24:00.720Z,27.64
2018-05-07T15:27:03.944Z,27.72
2018-05-07T15:30:07.320Z,28.02
2018-05-07T15:33:18.784Z,27.78
2018-05-07T15:36:22.070Z,27.62
2018-05-07T15:39:25.276Z,27.73
2018-05-07T15:42:29.575Z,27.63
2018-05-07T15:45:32.796Z,27.73
2018-05-07T15:48:35.988Z,27.56
2018-05-07T15:51:39.427Z,27.29
2018-05-07T15:54:42.691Z,27.25
2018-05-07T15:57:47.227Z,27.49
2018-05-07T16:00:50.588Z,27.67
2018-05-07T16:03:53.917Z,27.91
2018-05-07T16:06:58.353Z,28.20
2018-05-07T16:10:02.630Z,28.27
2018-05-07T16:13:05.896Z,27.69
2018-05-07T16:16:11.346Z,27.85
2018-05-07T16:19:14.771Z,27.88
2018-05-07T16:22:18.188Z,27.87
2018-05-07T16:25:21.487Z,28.15
2018-05-07T16:28:25.096Z,28.29
2018-05-07T16:31:29.364Z,28.30
2018-05-07T16:34:32.733Z,28.35
2018-05-07T16:37:36.063Z,28.21
2018-05-07T16:40:39.499Z,27.97
2018-05-07T16:43:42.844Z,27.90
2018-05-07T16:46:46.156Z,27.84
2018-05-07T16:49:49.831Z,27.60
2018-05-07T16:52:53.247Z,27.34
2018-05-07T16:55:56.520Z,27.39
2018-05-07T16:58:59.952Z,27.42
2018-05-07T17:02:03.291Z,27.47
2018-05-07T17:05:07.888Z,27.36
2018-05-07T17:08:11.266Z,27.32
2018-05-07T17:11:14.466Z,27.21
2018-05-07T17:14:17.644Z,27.09
2018-05-07T17:17:21.044Z,26.96
2018-05-07T17:20:24.529Z,26.73
2018-05-07T17:23:28.811Z,26.76
2018-05-07T17:26:32.196Z,26.71
2018-05-07T17:29:36.968Z,26.60
2018-05-07T17:32:41.513Z,26.52
2018-05-07T17:35:44.937Z,26.47
2018-05-07T17:38:48.300Z,26.57
2018-05-07T17:41:51.637Z,26.39
2018-05-07T17:45:07.781Z,26.28
2018-05-07T17:48:22.475Z,26.31
2018-05-07T17:51:25.944Z,26.29
2018-05-07T17:54:29.359Z,26.32
2018-05-07T17:57:32.745Z,26.25
2018-05-07T18:00:37.076Z,26.23
2018-05-07T18:03:41.888Z,26.04
2018-05-07T18:06:45.198Z,26.02
2018-05-07T18:09:48.576Z,25.86
2018-05-07T18:12:51.952Z,25.87
2018-05-07T18:15:55.272Z,25.79
2018-05-07T18:18:58.657Z,25.61
2018-05-07T18:22:02.055Z,25.39
2018-05-07T18:25:05.423Z,25.34
2018-05-07T18:28:09.001Z,25.39
2018-05-07T18:31:13.380Z,25.35
2018-05-07T18:34:16.751Z,25.33
2018-05-07T18:37:20.071Z,25.06
2018-05-07T18:40:23.425Z,24.84
2018-05-07T18:43:26.755Z,24.82
2018-05-07T18:46:30.071Z,24.77
2018-05-07T18:49:33.470Z,24.62
2018-05-07T18:52:37.585Z,24.68
2018-05-07T18:55:40.954Z,24.70
2018-05-07T18:58:44.288Z,24.68
2018-05-07T19:01:47.710Z,24.57
2018-05-07T19:04:51.610Z,24.46
2018-05-07T19:07:54.773Z,24.41
2018-05-07T19:10:58.092Z,24.25
2018-05-07T19:14:01.448Z,24.00
2018-05-07T19:17:04.727Z,23.86
2018-05-07T19:20:09.080Z,23.79
2018-05-07T19:23:12.352Z,23.73
2018-05-07T19:26:15.776Z,23.73
2018-05-07T19:29:19.107Z,23.64
2018-05-07T19:32:22.380Z,23.57
2018-05-07T19:35:25.719Z,23.48
2018-05-07T19:38:29.120Z,23.38
2018-05-07T19:41:32.699Z,23.23
2018-05-07T19:44:36.766Z,23.16
2018-05-07T19:47:40.166Z,23.03
2018-05-07T19:50:43.538Z,22.91
2018-05-07T19:53:46.941Z,22.82
2018-05-07T19:56:50.346Z,22.71
2018-05-07T19:59:54.585Z,22.68
2018-05-07T20:02:57.876Z,22.65
2018-05-07T20:06:01.154Z,22.65
2018-05-07T20:09:04.971Z,22.62
2018-05-07T20:12:09.200Z,22.49
2018-05-07T20:15:12.492Z,22.24
2018-05-07T20:18:15.799Z,22.18
2018-05-07T20:21:19.107Z,22.09
2018-05-07T20:24:22.459Z,21.99
2018-05-07T20:27:25.827Z,21.88
2018-05-07T20:30:29.197Z,21.87
2018-05-07T20:33:33.420Z,21.71
2018-05-07T20:36:37.225Z,21.54
2018-05-07T20:39:40.599Z,21.36
2018-05-07T20:42:43.899Z,21.26
2018-05-07T20:45:47.194Z,21.22
2018-05-07T20:48:50.552Z,21.13
2018-05-07T20:51:53.770Z,21.00
2018-05-07T20:54:57.191Z,20.90
2018-05-07T20:58:00.561Z,20.91
2018-05-07T21:01:04.136Z,20.94
2018-05-07T21:04:09.400Z,20.88
2018-05-07T21:07:13.842Z,20.87
2018-05-07T21:10:17.368Z,20.88
2018-05-07T21:13:21.810Z,20.82
2018-05-07T21:16:25.111Z,20.79
2018-05-07T21:19:28.473Z,20.68
2018-05-07T21:22:32.545Z,20.63
2018-05-07T21:25:35.853Z,20.63
2018-05-07T21:28:40.456Z,20.41
2018-05-07T21:31:43.764Z,19.93
2018-05-07T21:34:48.792Z,19.64
2018-05-07T21:37:52.500Z,19.58
2018-05-07T21:40:56.968Z,19.56
2018-05-07T21:44:00.383Z,19.53
2018-05-07T21:47:03.749Z,19.54
2018-05-07T21:50:07.528Z,19.59
2018-05-07T21:53:11.341Z,19.54
2018-05-07T21:56:14.643Z,19.55
2018-05-07T21:59:19.037Z,19.53
2018-05-07T22:02:22.377Z,19.54
2018-05-07T22:05:25.679Z,19.59
2018-05-07T22:08:29.108Z,19.58
2018-05-07T22:11:32.487Z,19.54
2018-05-07T22:14:36.011Z,19.51
2018-05-07T22:17:40.191Z,19.48
2018-05-07T22:20:43.503Z,19.44
2018-05-07T22:23:46.905Z,19.44
2018-05-07T22:26:50.260Z,19.37
2018-05-07T22:29:53.619Z,19.21
2018-05-07T22:32:57.003Z,19.05
2018-05-07T22:36:00.425Z,18.89
2018-05-07T22:39:03.812Z,18.76
2018-05-07T22:42:07.882Z,18.63
2018-05-07T22:45:11.329Z,18.47
2018-05-07T22:48:14.639Z,18.32
2018-05-07T22:51:17.857Z,18.08
2018-05-07T22:54:21.187Z,17.90
2018-05-07T22:57:24.531Z,17.78
2018-05-07T23:00:28.277Z,17.68
2018-05-07T23:03:31.679Z,17.72
2018-05-07T23:06:34.880Z,17.68
2018-05-07T23:09:38.221Z,17.66
2018-05-07T23:12:41.519Z,17.78
2018-05-07T23:15:44.921Z,17.81
2018-05-07T23:18:48.791Z,17.91
2018-05-07T23:21:52.294Z,18.02
2018-05-07T23:24:56.024Z,18.09
2018-05-07T23:27:59.444Z,18.29
2018-05-07T23:31:02.745Z,18.54
2018-05-07T23:34:06.119Z,18.69
2018-05-07T23:37:10.363Z,18.84
2018-05-07T23:40:13.583Z,18.94
2018-05-07T23:43:16.933Z,18.99
2018-05-07T23:46:20.348Z,19.05
2018-05-07T23:49:23.596Z,19.09
2018-05-07T23:52:27.040Z,19.11
2018-05-07T23:55:30.376Z,19.12
2018-05-07T23:58:33.704Z,19.13
